Terminal Aerodrome Forecast
Issued by NWS Pueblo, CO

Home | Current Version | Previous Version | Text Only | Print | Product List | Glossary On
Versions: 1 2 3 4 5 6 7 8 9 10 11 12 13 14 15 16 17 18 19 20 21 22 23 24 25 26 27 28 29 30 31 32 33 34 35 36 37 38 39 40
000
FTUS45 KPUB 221505 AAC
TAFCOS
TAF AMD
KCOS 221505Z 2215/2312 16010KT 3SM -SN BR OVC006
      TEMPO 2215/2217 1SM -SN BR OVC004
     FM221800 15007KT P6SM SCT020 BKN110
     FM222000 16009KT P6SM SCT025
     FM230300 36008KT P6SM SKC=

USA.gov is the U.S. government's official web portal to all federal, state and local government web resources and services.